Time;durP1;ratioP1;P1;durP2;ratioP2;P2;SDS_P1;SDS_P2;PMS_P1;PMS_P2;Temp;Humidity;BMP_temperature;BMP_pressure;BME280_temperature;BME280_humidity;BME280_pressure;Samples;Min_cycle;Max_cycle;Signal;HPM_P1;HPM_P2
2024/03/08 00:02:16;;;;;;;;;4.25;2.50;;;;;11.77;71.96;100994.28;146611;661;47014;-72
2024/03/08 00:05:34;;;;;;;;;3.75;3.00;;;;;11.70;70.28;100994.78;146619;570;46021;-72
2024/03/08 00:08:32;;;;;;;;;2.75;2.00;;;;;11.60;71.37;100996.03;146618;586;46016;-78
2024/03/08 00:11:36;;;;;;;;;3.75;3.00;;;;;11.57;70.46;100991.56;146618;650;46021;-77
2024/03/08 00:14:34;;;;;;;;;2.75;1.00;;;;;11.53;70.92;100983.56;146616;682;46033;-78
2024/03/08 00:17:27;;;;;;;;;1.25;1.25;;;;;11.51;70.41;100978.28;146618;595;46020;-75
2024/03/08 00:20:21;;;;;;;;;2.00;2.00;;;;;11.45;71.00;100977.06;146619;703;46012;-71
2024/03/08 00:23:15;;;;;;;;;0.75;0.00;;;;;11.39;70.48;100981.94;146625;622;45020;-76
2024/03/08 00:26:16;;;;;;;;;1.25;1.25;;;;;11.28;69.98;100979.69;146618;629;46913;-76
2024/03/08 00:29:17;;;;;;;;;1.00;0.33;;;;;11.24;69.51;100985.50;146638;625;46022;-77
2024/03/08 00:32:24;;;;;;;;;1.00;1.00;;;;;11.19;68.59;100973.13;146638;592;45913;-72
2024/03/08 00:35:19;;;;;;;;;1.50;1.50;;;;;11.20;69.49;100982.69;146644;564;45010;-72
2024/03/08 00:38:13;;;;;;;;;0.50;0.50;;;;;11.16;70.27;100986.81;146638;608;45917;-73
2024/03/08 00:41:15;;;;;;;;;1.25;1.25;;;;;11.14;70.72;100978.06;146642;590;46020;-73
2024/03/08 00:44:11;;;;;;;;;0.67;0.67;;;;;11.08;70.69;100983.81;146642;582;46917;-72
2024/03/08 00:47:16;;;;;;;;;0.75;0.75;;;;;11.05;70.83;100977.56;146644;575;45010;-73
2024/03/08 00:50:25;;;;;;;;;0.00;0.00;;;;;11.05;70.22;100982.75;146639;570;45016;-73
2024/03/08 00:53:19;;;;;;;;;0.75;0.75;;;;;11.03;69.91;100974.91;146644;572;45012;-78
2024/03/08 00:56:23;;;;;;;;;1.00;0.50;;;;;11.01;69.86;100966.13;146637;594;47915;-82
2024/03/08 00:59:37;;;;;;;;;0.00;0.00;;;;;8.99;69.47;100613.16;146642;561;46010;-79
2024/03/08 01:02:41;;;;;;;;;3.00;1.00;;;;;10.94;70.82;100953.66;146639;656;45913;-81
2024/03/08 01:05:42;;;;;;;;;2.00;1.00;;;;;10.91;71.30;100957.78;146641;551;46010;-77
2024/03/08 01:08:24;;;;;;;;;0.33;0.33;;;;;10.81;73.01;100946.94;146696;568;46023;-76
2024/03/08 01:11:28;;;;;;;;;0.33;0.00;;;;;10.76;72.88;100952.66;146618;588;46016;-81
2024/03/08 01:14:22;;;;;;;;;0.00;0.00;;;;;10.69;73.05;100951.44;146622;584;46010;-73
2024/03/08 01:17:44;;;;;;;;;0.33;0.00;;;;;10.67;72.76;100950.47;146613;655;47019;-72
2024/03/08 01:20:35;;;;;;;;;0.33;0.33;;;;;10.65;72.41;100949.47;146620;578;46020;-72
2024/03/08 01:23:35;;;;;;;;;0.00;0.00;;;;;10.64;72.26;100947.69;146613;597;47917;-72
2024/03/08 01:26:39;;;;;;;;;0.00;0.00;;;;;10.63;72.18;100949.41;146618;571;46020;-73
2024/03/08 01:29:45;;;;;;;;;1.00;1.00;;;;;10.61;71.87;100948.41;146618;566;46917;-70
2024/03/08 01:32:46;;;;;;;;;0.00;0.00;;;;;10.65;71.02;100949.47;146622;666;46021;-75
2024/03/08 01:35:46;;;;;;;;;0.00;0.00;;;;;10.65;71.29;100949.47;146619;577;46016;-80
2024/03/08 01:38:42;;;;;;;;;0.00;0.00;;;;;10.69;71.04;100947.97;146622;570;47010;-76
2024/03/08 01:41:40;;;;;;;;;0.00;0.00;;;;;10.70;70.99;100952.34;146619;590;46012;-79
2024/03/08 01:44:41;;;;;;;;;0.00;0.00;;;;;10.74;70.09;100956.88;146618;593;47042;-72
2024/03/08 01:47:37;;;;;;;;;0.00;0.00;;;;;10.74;69.95;100960.34;146616;603;46017;-72
2024/03/08 01:50:37;;;;;;;;;0.00;0.00;;;;;10.76;68.94;100963.94;146615;638;46020;-72
2024/03/08 01:53:37;;;;;;;;;0.00;0.00;;;;;10.80;68.37;100952.91;146611;621;46016;-73
2024/03/08 01:56:34;;;;;;;;;0.00;0.00;;;;;10.83;68.09;100950.47;146619;588;47010;-72
2024/03/08 01:59:28;;;;;;;;;0.00;0.00;;;;;10.86;68.11;100949.75;146619;645;46012;-71
2024/03/08 02:02:26;;;;;;;;;0.00;0.00;;;;;10.84;68.05;100954.88;146620;579;47010;-73
2024/03/08 02:05:30;;;;;;;;;0.00;0.00;;;;;10.81;68.16;100959.91;146613;597;46016;-75
2024/03/08 02:08:34;;;;;;;;;0.50;0.25;;;;;10.81;68.75;100961.56;146617;697;46021;-80
2024/03/08 02:11:28;;;;;;;;;0.00;0.00;;;;;10.80;68.79;100960.69;146616;608;47012;-80
2024/03/08 02:14:23;;;;;;;;;0.00;0.00;;;;;10.80;68.71;100959.78;146620;634;46020;-81
2024/03/08 02:17:24;;;;;;;;;0.67;0.00;;;;;10.81;69.01;100961.56;146618;641;47012;-79
2024/03/08 02:20:20;;;;;;;;;1.00;1.00;;;;;10.81;69.43;100959.91;146618;722;46020;-77
2024/03/08 02:23:17;;;;;;;;;0.00;0.00;;;;;10.80;69.24;100965.87;146618;612;47014;-79
2024/03/08 02:26:16;;;;;;;;;0.00;0.00;;;;;10.79;69.01;100960.62;146618;585;46020;-78
2024/03/08 02:29:14;;;;;;;;;1.00;0.00;;;;;10.78;69.18;100971.81;146615;576;47012;-77
2024/03/08 02:32:13;;;;;;;;;1.00;1.00;;;;;10.74;69.23;100968.13;146623;629;46010;-79
2024/03/08 02:35:11;;;;;;;;;0.00;0.00;;;;;10.70;69.24;100963.59;146614;605;46014;-80
2024/03/08 02:38:11;;;;;;;;;0.00;0.00;;;;;10.67;69.52;100970.31;146622;647;46021;-78
2024/03/08 02:41:15;;;;;;;;;1.50;1.00;;;;;10.62;69.40;100973.56;146616;570;46016;-76
2024/03/08 02:44:09;;;;;;;;;0.75;0.00;;;;;10.63;69.53;100979.63;146624;566;46010;-76
2024/03/08 02:47:13;;;;;;;;;0.00;0.00;;;;;10.62;70.06;100972.66;146618;706;46014;-77
2024/03/08 02:50:18;;;;;;;;;1.75;1.75;;;;;10.58;69.76;100974.19;146624;649;46010;-78
2024/03/08 02:53:11;;;;;;;;;1.00;1.00;;;;;10.53;69.97;100980.84;146620;581;46013;-80
2024/03/08 02:56:16;;;;;;;;;0.00;0.00;;;;;10.54;69.22;100979.13;146626;576;45020;-79
2024/03/08 02:59:17;;;;;;;;;4.00;3.00;;;;;10.56;69.37;100983.59;146620;597;46017;-82
2024/03/08 03:02:12;;;;;;;;;2.00;2.00;;;;;10.57;69.75;100987.09;146623;647;45021;-81
2024/03/08 03:05:15;;;;;;;;;0.00;0.00;;;;;10.59;69.68;100982.84;146617;598;46012;-75
2024/03/08 03:08:13;;;;;;;;;3.75;3.75;;;;;10.68;69.42;100987.66;146621;597;46020;-79
2024/03/08 03:11:05;;;;;;;;;0.00;0.00;;;;;10.69;69.20;100979.97;146621;564;46016;-80
2024/03/08 03:14:02;;;;;;;;;3.00;3.00;;;;;10.66;69.02;100974.62;146623;704;47010;-76
2024/03/08 03:16:58;;;;;;;;;3.75;3.75;;;;;10.67;69.74;100973.81;146619;603;46016;-75
2024/03/08 03:19:58;;;;;;;;;1.00;1.00;;;;;10.69;69.44;100985.16;146618;589;46020;-76
2024/03/08 03:22:56;;;;;;;;;1.00;1.00;;;;;10.70;69.33;100986.94;146622;669;46013;-74
2024/03/08 03:25:52;;;;;;;;;1.25;1.25;;;;;10.70;69.02;100994.72;146622;628;46020;-72
2024/03/08 03:28:35;;;;;;;;;10.25;6.75;;;;;10.73;70.39;100999.19;146705;568;46023;-72
2024/03/08 03:31:46;;;;;;;;;0.00;0.00;;;;;10.79;69.68;100999.53;146625;588;47012;-72
2024/03/08 03:34:43;;;;;;;;;3.25;2.25;;;;;10.84;69.14;100998.97;146624;719;47020;-71
2024/03/08 03:38:07;;;;;;;;;3.50;3.00;;;;;10.88;68.74;100997.44;146620;621;46042;-73
2024/03/08 03:41:09;;;;;;;;;0.67;0.00;;;;;10.88;68.77;101009.50;146630;589;47010;-72
2024/03/08 03:43:59;;;;;;;;;0.00;0.00;;;;;10.83;69.74;101014.44;146708;575;46022;-74
2024/03/08 03:47:03;;;;;;;;;4.00;1.00;;;;;10.83;68.77;101015.31;146622;569;46017;-73
2024/03/08 03:50:04;;;;;;;;;1.75;1.00;;;;;10.84;68.36;101014.53;146629;592;46020;-75
2024/03/08 03:53:08;;;;;;;;;2.25;2.25;;;;;10.83;68.20;101019.63;146623;661;46016;-75
2024/03/08 03:56:06;;;;;;;;;5.75;5.25;;;;;10.84;68.16;101030.09;146631;574;46020;-74
2024/03/08 03:59:10;;;;;;;;;2.00;2.00;;;;;9.80;68.35;100852.31;146625;645;47016;-74
2024/03/08 04:02:10;;;;;;;;;0.33;0.33;;;;;10.80;68.68;101029.84;146630;600;46021;-75
2024/03/08 04:05:02;;;;;;;;;0.00;0.00;;;;;10.76;67.91;101026.19;146622;631;47014;-76
2024/03/08 04:08:04;;;;;;;;;0.67;0.67;;;;;10.76;68.15;101035.66;146633;608;45020;-74
2024/03/08 04:11:05;;;;;;;;;0.33;0.33;;;;;10.70;68.19;101024.94;146620;643;47012;-76
2024/03/08 04:14:06;;;;;;;;;0.67;0.67;;;;;10.67;68.36;101035.16;146628;617;46020;-79
2024/03/08 04:17:08;;;;;;;;;0.00;0.00;;;;;10.49;70.79;101042.78;146714;566;45022;-80
2024/03/08 04:20:09;;;;;;;;;2.00;2.00;;;;;10.33;69.88;101043.63;146618;581;46013;-82
2024/03/08 04:23:12;;;;;;;;;0.50;0.50;;;;;10.22;69.56;101044.66;146618;569;46020;-80
2024/03/08 04:26:09;;;;;;;;;1.75;1.75;;;;;10.19;70.82;101040.22;146614;622;46016;-73
2024/03/08 04:29:10;;;;;;;;;0.00;0.00;;;;;10.16;70.19;101040.94;146616;682;46021;-74
2024/03/08 04:32:14;;;;;;;;;0.75;0.75;;;;;10.09;70.52;101041.38;146613;691;47014;-74
2024/03/08 04:35:09;;;;;;;;;0.25;0.25;;;;;10.05;70.51;101048.88;146618;656;46011;-73
2024/03/08 04:38:05;;;;;;;;;2.00;2.00;;;;;10.04;70.55;101047.97;146616;719;46012;-76
2024/03/08 04:41:03;;;;;;;;;1.75;1.75;;;;;10.05;69.89;101052.34;146615;673;46020;-75
2024/03/08 04:43:57;;;;;;;;;0.25;0.25;;;;;10.05;69.96;101051.47;146613;578;47017;-76
2024/03/08 04:47:04;;;;;;;;;0.50;0.50;;;;;9.10;69.81;100891.44;146620;579;46020;-75
2024/03/08 04:50:04;;;;;;;;;2.25;1.00;;;;;10.04;70.67;101054.88;146614;584;46013;-73
2024/03/08 04:53:03;;;;;;;;;1.50;1.50;;;;;10.06;70.54;101050.66;146617;694;46020;-80
2024/03/08 04:55:58;;;;;;;;;2.75;2.00;;;;;10.08;70.74;101056.81;146613;574;46016;-80
2024/03/08 04:58:54;;;;;;;;;2.25;2.25;;;;;10.08;70.96;101057.72;146616;563;47026;-79
2024/03/08 05:01:56;;;;;;;;;3.00;3.00;;;;;10.09;71.74;101056.94;146610;689;46016;-73
2024/03/08 05:04:48;;;;;;;;;3.25;3.25;;;;;10.10;72.36;101065.59;146617;660;46021;-74
2024/03/08 05:07:45;;;;;;;;;6.00;4.00;;;;;10.11;72.47;101063.06;146612;569;47012;-73
2024/03/08 05:10:28;;;;;;;;;3.00;3.00;;;;;10.08;74.73;101068.06;146694;564;46035;-73
2024/03/08 05:13:26;;;;;;;;;4.00;3.00;;;;;10.12;74.32;101066.56;146616;580;47012;-72
2024/03/08 05:16:24;;;;;;;;;3.50;3.50;;;;;10.12;73.97;101076.91;146620;613;46010;-72
2024/03/08 05:19:23;;;;;;;;;4.75;4.00;;;;;10.12;73.38;101076.91;146617;668;46031;-71
2024/03/08 05:22:24;;;;;;;;;3.50;3.50;;;;;10.16;73.12;101078.91;146622;620;46020;-73
2024/03/08 05:25:26;;;;;;;;;4.00;4.00;;;;;10.46;72.93;101081.50;146619;575;46016;-74
2024/03/08 05:28:21;;;;;;;;;3.50;3.50;;;;;10.58;72.17;101085.69;146621;661;46010;-73
2024/03/08 05:31:40;;;;;;;;;6.25;6.00;;;;;10.54;71.19;101086.31;146615;661;47012;-74
2024/03/08 05:34:44;;;;;;;;;5.75;3.75;;;;;10.86;72.86;101092.44;146621;588;46010;-76
2024/03/08 05:37:46;;;;;;;;;6.25;6.25;;;;;11.79;70.71;101088.78;146616;583;46012;-76
2024/03/08 05:40:42;;;;;;;;;4.25;4.25;;;;;12.38;66.65;101097.87;146616;667;46020;-72
2024/03/08 05:43:44;;;;;;;;;8.25;7.75;;;;;12.38;64.90;101103.97;146615;578;47012;-73
2024/03/08 05:46:42;;;;;;;;;11.00;9.75;;;;;12.18;65.35;101105.59;146616;588;46020;-71
2024/03/08 05:49:50;;;;;;;;;16.00;14.00;;;;;11.96;65.61;101114.00;146615;721;47015;-72
2024/03/08 05:52:54;;;;;;;;;12.50;11.50;;;;;11.78;65.98;101121.69;146611;643;46020;-72
2024/03/08 05:55:50;;;;;;;;;8.00;8.00;;;;;11.68;66.69;101128.87;146609;610;46012;-71
2024/03/08 05:58:45;;;;;;;;;14.75;12.50;;;;;11.58;67.38;101135.31;146618;619;46021;-71
2024/03/08 06:01:47;;;;;;;;;31.75;27.50;;;;;11.85;74.22;101141.13;146607;576;47012;-71
2024/03/08 06:04:44;;;;;;;;;7.00;6.00;;;;;12.58;72.47;101151.78;146613;625;47021;-77
2024/03/08 06:07:42;;;;;;;;;5.00;2.25;;;;;13.35;67.29;101143.38;146614;639;47012;-77
2024/03/08 06:10:40;;;;;;;;;3.75;3.75;;;;;13.98;63.44;101150.56;146618;651;46012;-77
2024/03/08 06:13:37;;;;;;;;;3.00;2.50;;;;;14.43;59.08;101153.38;146610;571;47012;-76
2024/03/08 06:16:54;;;;;;;;;;;;;;;;;;;;;
2024/03/08 06:19:47;;;;;;;;;2.00;2.00;;;;;14.41;57.03;101160.25;146611;564;46913;-76
2024/03/08 06:22:53;;;;;;;;;2.00;1.25;;;;;13.81;57.28;101101.19;146622;588;46020;-74
2024/03/08 06:25:57;;;;;;;;;2.33;1.67;;;;;14.03;57.20;101175.13;146612;620;47014;-80
2024/03/08 06:28:57;;;;;;;;;2.00;1.00;;;;;13.85;58.17;101183.00;146618;589;46021;-78
2024/03/08 06:31:53;;;;;;;;;1.67;1.00;;;;;13.71;58.82;101182.41;146614;608;46016;-73
2024/03/08 06:35:13;;;;;;;;;2.00;2.00;;;;;13.68;59.49;101187.47;146618;569;47023;-73
2024/03/08 06:38:08;;;;;;;;;1.67;1.00;;;;;13.76;60.10;101188.69;146617;565;46012;-77
2024/03/08 06:41:03;;;;;;;;;3.50;3.00;;;;;13.93;59.97;101193.81;146619;687;47010;-76
2024/03/08 06:43:59;;;;;;;;;5.25;4.00;;;;;14.14;57.84;101194.72;146611;735;47003;-75
2024/03/08 06:47:01;;;;;;;;;5.25;5.00;;;;;14.31;58.55;101201.59;146619;577;46020;-77
2024/03/08 06:49:56;;;;;;;;;2.25;2.25;;;;;14.46;58.46;101196.16;146611;600;46017;-76
2024/03/08 06:52:53;;;;;;;;;3.25;3.25;;;;;14.66;56.75;101199.63;146618;710;46020;-77
2024/03/08 06:55:56;;;;;;;;;3.33;3.00;;;;;14.72;56.42;101210.34;146614;701;46016;-75
2024/03/08 06:58:52;;;;;;;;;3.25;3.00;;;;;13.85;55.32;101065.72;146618;666;47021;-76
2024/03/08 07:01:49;;;;;;;;;2.00;2.00;;;;;14.44;56.64;101204.72;146616;588;46030;-76
2024/03/08 07:04:50;;;;;;;;;1.00;1.00;;;;;14.39;58.53;101198.41;146612;593;47011;-76
2024/03/08 07:07:44;;;;;;;;;3.00;1.75;;;;;14.48;58.43;101211.84;146613;731;46016;-75
2024/03/08 07:10:45;;;;;;;;;1.00;1.00;;;;;14.54;56.61;101197.38;146618;598;46020;-75
2024/03/08 07:13:41;;;;;;;;;1.75;1.75;;;;;14.59;57.20;101209.75;146616;679;46017;-72
2024/03/08 07:16:33;;;;;;;;;4.67;2.67;;;;;14.50;57.35;101205.88;146621;664;46020;-73
2024/03/08 07:19:29;;;;;;;;;2.00;1.67;;;;;14.45;58.33;101202.19;146614;622;46014;-74
2024/03/08 07:22:27;;;;;;;;;2.33;2.33;;;;;14.49;58.73;101216.28;146617;704;47010;-75
2024/03/08 07:25:29;;;;;;;;;1.00;1.00;;;;;14.65;58.64;101210.03;146615;682;47012;-75
2024/03/08 07:28:27;;;;;;;;;2.67;2.00;;;;;14.85;57.61;101218.69;146618;581;47012;-78
2024/03/08 07:31:31;;;;;;;;;2.75;2.75;;;;;14.95;56.82;101203.47;146611;657;47014;-76
2024/03/08 07:34:31;;;;;;;;;3.33;2.00;;;;;15.06;57.59;101214.34;146620;595;46020;-78
2024/03/08 07:37:43;;;;;;;;;3.25;2.50;;;;;15.20;56.53;101214.88;146610;578;46012;-73
2024/03/08 07:40:44;;;;;;;;;2.00;2.00;;;;;15.32;57.70;101211.88;146617;593;47020;-80
2024/03/08 07:43:37;;;;;;;;;1.67;1.67;;;;;15.47;54.80;101215.09;146618;646;46016;-78
2024/03/08 07:46:45;;;;;;;;;2.00;2.00;;;;;15.54;55.77;101211.00;146616;563;46020;-72
2024/03/08 07:49:40;;;;;;;;;3.67;3.00;;;;;15.57;53.41;101214.62;146612;638;46017;-72
2024/03/08 07:52:40;;;;;;;;;1.00;1.00;;;;;15.62;54.84;101212.19;146617;563;46010;-72
2024/03/08 07:55:36;;;;;;;;;2.00;1.33;;;;;15.66;54.88;101208.84;146614;608;46016;-72
2024/03/08 07:58:32;;;;;;;;;1.33;1.00;;;;;15.73;54.78;101212.63;146620;597;46020;-75
2024/03/08 08:01:30;;;;;;;;;0.67;0.67;;;;;15.80;53.68;101222.50;146611;579;46016;-76
2024/03/08 08:04:36;;;;;;;;;0.00;0.00;;;;;15.82;53.64;101218.22;146615;637;47010;-77
2024/03/08 08:07:33;;;;;;;;;0.00;0.00;;;;;15.82;52.35;101219.09;146608;667;47016;-80
2024/03/08 08:10:28;;;;;;;;;3.33;1.33;;;;;15.86;52.67;101215.78;146623;629;47010;-80
2024/03/08 08:13:32;;;;;;;;;1.33;0.33;;;;;15.89;52.68;101209.78;146617;565;47012;-77
2024/03/08 08:16:45;;;;;;;;;1.00;1.00;;;;;15.95;53.01;101199.56;146622;736;47010;-86
2024/03/08 08:19:43;;;;;;;;;2.67;0.67;;;;;16.03;51.22;101194.59;146618;578;47012;-73
2024/03/08 08:22:54;;;;;;;;;1.00;1.00;;;;;16.15;52.12;101201.16;146621;595;46012;-79
2024/03/08 08:25:50;;;;;;;;;0.67;0.67;;;;;16.23;51.51;101195.28;146615;589;46017;-78
2024/03/08 08:28:45;;;;;;;;;0.00;0.00;;;;;16.34;51.71;101207.03;146623;571;46020;-88
2024/03/08 08:31:40;;;;;;;;;1.00;0.00;;;;;16.42;50.81;101195.12;146616;637;46912;-75
2024/03/08 08:34:38;;;;;;;;;0.33;0.33;;;;;16.42;50.39;101195.12;146618;570;46021;-79
2024/03/08 08:37:37;;;;;;;;;0.00;0.00;;;;;16.42;50.39;101197.75;146616;652;46016;-85
2024/03/08 08:40:47;;;;;;;;;0.00;0.00;;;;;16.49;50.81;101204.97;146621;670;47010;-74
2024/03/08 08:43:43;;;;;;;;;0.00;0.00;;;;;16.52;51.60;101205.06;146616;563;46012;-86
2024/03/08 08:47:00;;;;;;;;;0.00;0.00;;;;;16.59;50.78;101204.44;146620;574;47020;-85
2024/03/08 08:49:59;;;;;;;;;0.67;0.33;;;;;16.57;50.11;101205.22;146618;595;46911;-84
2024/03/08 08:53:03;;;;;;;;;3.33;2.33;;;;;16.59;52.16;101201.81;146619;586;46010;-87
2024/03/08 08:56:02;;;;;;;;;2.00;0.67;;;;;16.76;51.78;101210.31;146617;573;46017;-85
2024/03/08 08:59:03;;;;;;;;;0.00;0.00;;;;;16.95;51.05;101197.81;146619;563;46020;-80
2024/03/08 09:02:07;;;;;;;;;1.33;1.00;;;;;16.98;50.56;101198.81;146616;596;46912;-83
2024/03/08 09:05:18;;;;;;;;;0.00;0.00;;;;;16.84;49.81;101197.44;146619;627;46027;-83
2024/03/08 09:08:13;;;;;;;;;0.00;0.00;;;;;16.60;50.59;101206.25;146612;609;46016;-82
2024/03/08 09:11:12;;;;;;;;;2.00;1.00;;;;;16.37;50.93;101208.03;146622;573;46031;-82
2024/03/08 09:14:07;;;;;;;;;3.00;2.00;;;;;16.26;52.01;101219.87;146615;593;47012;-82
2024/03/08 09:17:10;;;;;;;;;1.00;0.00;;;;;16.17;53.26;101216.91;146620;623;46020;-83
2024/03/08 09:20:10;;;;;;;;;1.00;1.00;;;;;16.22;52.88;101211.84;146617;571;46012;-81
2024/03/08 09:23:12;;;;;;;;;0.00;0.00;;;;;16.31;52.44;101207.81;146622;657;46020;-86
2024/03/08 09:26:08;;;;;;;;;2.00;2.00;;;;;16.27;52.23;101215.53;146617;654;46025;-81
2024/03/08 09:29:19;;;;;;;;;1.00;1.00;;;;;16.19;52.40;101212.63;146620;576;46020;-82
2024/03/08 09:32:14;;;;;;;;;1.67;0.67;;;;;16.10;52.82;101218.41;146616;608;47017;-81
2024/03/08 09:35:17;;;;;;;;;1.00;1.00;;;;;16.05;52.22;101217.34;146621;564;46020;-82
2024/03/08 09:38:20;;;;;;;;;2.00;1.00;;;;;16.04;53.41;101215.56;146618;604;47016;-85
2024/03/08 09:41:24;;;;;;;;;1.33;1.33;;;;;16.11;53.07;101216.69;146623;570;46050;-82
2024/03/08 09:44:42;;;;;;;;;0.00;0.00;;;;;16.32;52.60;101204.38;146619;663;46016;-82
2024/03/08 09:47:38;;;;;;;;;1.00;1.00;;;;;16.76;52.19;101218.16;146622;564;46021;-81
2024/03/08 09:50:35;;;;;;;;;2.33;1.67;;;;;17.30;50.72;101198.94;146619;564;46016;-78
2024/03/08 09:53:32;;;;;;;;;5.33;4.67;;;;;17.78;50.10;101214.41;146621;577;46049;-81
2024/03/08 09:56:27;;;;;;;;;19.50;15.00;;;;;18.05;47.99;101211.72;146616;606;46913;-81
2024/03/08 10:02:38;;;;;;;;;5.00;5.00;;;;;18.35;44.67;101219.56;146621;591;46911;-83
2024/03/08 10:05:46;;;;;;;;;6.00;4.33;;;;;18.15;48.07;101216.37;146622;624;46012;-81
2024/03/08 10:09:06;;;;;;;;;1.00;1.00;;;;;16.89;48.64;101036.13;146619;605;46016;-81
2024/03/08 10:12:07;;;;;;;;;5.00;5.00;;;;;17.52;47.58;101209.25;146622;636;47010;-82
2024/03/08 10:15:16;;;;;;;;;6.00;6.00;;;;;17.27;49.71;101207.59;146616;616;46037;-80
2024/03/08 10:18:12;;;;;;;;;3.00;3.00;;;;;17.04;46.27;101203.34;146618;605;46020;-84
2024/03/08 10:21:31;;;;;;;;;7.00;6.00;;;;;16.67;50.40;101215.19;146616;572;47014;-80
2024/03/08 10:24:24;;;;;;;;;4.00;4.00;;;;;16.34;47.85;101231.47;146611;590;47010;-81
2024/03/08 10:27:22;;;;;;;;;10.50;8.00;;;;;16.08;49.53;101227.06;146614;569;47012;-82
2024/03/08 10:30:23;;;;;;;;;10.00;10.00;;;;;15.77;50.60;101238.97;146618;618;46020;-80
2024/03/08 10:33:59;;;;;;;;;6.67;6.67;;;;;14.53;50.78;101061.66;146612;578;46012;-84
2024/03/08 10:37:33;;;;;;;;;8.67;7.33;;;;;15.05;53.08;101199.50;146623;587;46020;-82
2024/03/08 10:41:45;;;;;;;;;8.00;7.00;;;;;13.75;53.62;100996.66;146622;700;46012;-82
2024/03/08 10:45:12;;;;;;;;;12.67;9.67;;;;;14.99;52.35;101233.22;146619;675;47013;-79
2024/03/08 10:48:35;;;;;;;;;8.33;8.33;;;;;14.87;54.50;101225.75;146617;619;47029;-79
2024/03/08 10:51:54;;;;;;;;;;;;;;;;;;;;;
2024/03/08 10:54:50;;;;;;;;;6.00;5.67;;;;;15.02;53.77;101223.78;146618;591;46028;-79
2024/03/08 10:57:47;;;;;;;;;17.75;15.00;;;;;15.29;54.36;101224.81;146610;628;46020;-81
2024/03/08 11:01:12;;;;;;;;;17.25;15.00;;;;;14.01;54.80;100892.56;146610;657;46017;-80
2024/03/08 11:04:22;;;;;;;;;;;;;;;;;;;;;
2024/03/08 11:07:25;;;;;;;;;5.00;5.00;;;;;17.03;52.15;101218.16;146617;622;46016;-78
2024/03/08 11:10:29;;;;;;;;;3.33;3.00;;;;;17.31;47.88;101234.78;146620;683;46021;-82
2024/03/08 11:13:44;;;;;;;;;4.00;4.00;;;;;17.41;49.64;101220.22;146618;648;46016;-80
2024/03/08 11:16:53;;;;;;;;;3.67;3.00;;;;;15.65;48.06;100924.78;146621;588;47021;-81
2024/03/08 11:19:56;;;;;;;;;5.25;5.25;;;;;17.40;49.65;101221.09;146617;594;46012;-78
2024/03/08 11:23:10;;;;;;;;;2.00;2.00;;;;;17.24;50.69;101227.56;146619;595;47021;-81
2024/03/08 11:26:28;;;;;;;;;3.00;2.00;;;;;16.27;51.08;101058.53;146619;577;46016;-76
2024/03/08 11:30:12;;;;;;;;;3.00;3.00;;;;;17.34;51.91;101215.66;146616;613;46020;-80
2024/03/08 11:33:33;;;;;;;;;2.00;2.00;;;;;16.40;51.39;101039.75;146619;569;46012;-75
2024/03/08 11:36:40;;;;;;;;;3.00;3.00;;;;;17.51;49.05;101223.22;146622;567;46029;-80
2024/03/08 11:40:04;;;;;;;;;4.33;3.00;;;;;17.66;49.90;101211.38;146616;607;47012;-81
2024/03/08 11:43:12;;;;;;;;;1.67;1.67;;;;;17.92;47.51;101218.34;146624;566;46010;-79
2024/03/08 11:46:21;;;;;;;;;2.67;2.00;;;;;17.90;49.96;101219.13;146615;608;46016;-76
2024/03/08 11:49:19;;;;;;;;;3.33;1.33;;;;;17.47;46.68;101129.56;146620;594;46020;-74
2024/03/08 11:52:31;;;;;;;;;1.00;1.00;;;;;17.93;46.80;101214.88;146614;581;48017;-83
2024/03/08 11:55:29;;;;;;;;;3.00;3.00;;;;;17.74;47.57;101209.91;146625;583;46010;-77
2024/03/08 11:58:23;;;;;;;;;4.33;3.33;;;;;17.65;48.69;101213.13;146620;608;46016;-82
2024/03/08 12:01:23;;;;;;;;;4.00;2.33;;;;;17.81;48.28;101206.63;146617;578;46021;-78
2024/03/08 12:04:27;;;;;;;;;2.33;2.00;;;;;17.98;48.23;101209.78;146618;691;46038;-77
2024/03/08 12:07:36;;;;;;;;;2.00;2.00;;;;;18.12;47.82;101203.16;146626;576;46012;-77
2024/03/08 12:10:35;;;;;;;;;3.67;3.33;;;;;18.33;46.91;101207.25;146616;599;46016;-78
2024/03/08 12:13:40;;;;;;;;;1.67;1.67;;;;;18.40;46.28;101207.44;146618;577;46020;-80
2024/03/08 12:16:48;;;;;;;;;3.33;1.00;;;;;18.41;47.42;101196.09;146617;602;46012;-78
2024/03/08 12:19:54;;;;;;;;;4.33;3.00;;;;;18.40;46.41;101202.19;146620;587;47020;-80
2024/03/08 12:22:59;;;;;;;;;4.00;4.00;;;;;18.27;46.29;101191.31;146616;625;47012;-79
2024/03/08 12:25:57;;;;;;;;;2.67;2.67;;;;;18.16;47.48;101194.53;146619;656;46020;-77
2024/03/08 12:29:23;;;;;;;;;3.00;3.00;;;;;18.06;48.12;101197.72;146621;564;47012;-79
2024/03/08 12:32:23;;;;;;;;;4.67;3.67;;;;;16.67;48.62;100958.59;146620;569;46020;-84
2024/03/08 12:35:26;;;;;;;;;3.00;3.00;;;;;17.97;47.96;101187.91;146616;573;46016;-76
2024/03/08 12:38:37;;;;;;;;;3.00;3.00;;;;;17.95;49.34;101193.94;146622;613;46021;-70
2024/03/08 12:41:38;;;;;;;;;3.00;3.00;;;;;17.87;49.08;101185.84;146619;587;46016;-76
2024/03/08 12:44:37;;;;;;;;;6.33;6.00;;;;;17.76;48.04;101188.12;146621;579;46011;-74
2024/03/08 12:47:53;;;;;;;;;4.00;4.00;;;;;17.66;49.28;101187.78;146612;633;46016;-76
2024/03/08 12:50:58;;;;;;;;;4.33;3.67;;;;;17.57;50.41;101191.03;146622;582;46021;-76
2024/03/08 12:53:59;;;;;;;;;2.00;2.00;;;;;17.58;48.94;101186.69;146618;625;46911;-77
2024/03/08 12:56:59;;;;;;;;;5.00;5.00;;;;;17.63;49.72;101185.06;146622;614;46020;-76
2024/03/08 12:59:59;;;;;;;;;3.00;3.00;;;;;17.54;50.23;101191.84;146604;566;48911;-76
2024/03/08 13:03:18;;;;;;;;;1.00;1.00;;;;;17.54;50.94;101185.72;146618;612;46010;-76
2024/03/08 13:06:12;;;;;;;;;3.33;3.33;;;;;17.59;49.32;101193.69;146616;583;47014;-76
2024/03/08 13:09:10;;;;;;;;;3.00;2.00;;;;;17.59;48.14;101189.34;146625;604;46010;-76
2024/03/08 13:12:16;;;;;;;;;3.00;2.67;;;;;17.58;50.11;101186.69;146620;569;47016;-79
2024/03/08 13:15:23;;;;;;;;;3.00;2.67;;;;;17.53;49.26;101194.41;146620;571;46020;-76
2024/03/08 13:18:37;;;;;;;;;3.33;3.33;;;;;15.70;50.06;100907.56;146619;576;47026;-74
2024/03/08 13:21:43;;;;;;;;;8.33;7.67;;;;;17.36;49.01;101190.38;146623;595;46021;-76
2024/03/08 13:24:53;;;;;;;;;3.00;3.00;;;;;17.23;48.58;101187.38;146619;597;46016;-77
2024/03/08 13:27:57;;;;;;;;;2.00;2.00;;;;;17.20;48.77;101186.41;146620;579;47020;-74
2024/03/08 13:30:51;;;;;;;;;3.00;2.00;;;;;17.21;48.11;101193.41;146618;632;46012;-76
2024/03/08 13:33:47;;;;;;;;;3.00;2.00;;;;;17.23;49.03;101184.75;146618;577;46012;-72
2024/03/08 13:36:51;;;;;;;;;2.00;2.00;;;;;17.27;49.20;101186.63;146615;569;46016;-79
2024/03/08 13:39:58;;;;;;;;;4.00;3.00;;;;;17.25;49.78;101183.06;146621;579;46020;-78
2024/03/08 13:43:04;;;;;;;;;2.00;1.75;;;;;17.17;49.73;101183.69;146617;615;47013;-75
2024/03/08 13:46:01;;;;;;;;;0.00;0.00;;;;;17.09;50.31;101176.44;146623;627;46010;-74
2024/03/08 13:49:01;;;;;;;;;6.00;5.00;;;;;17.03;49.72;101180.59;146619;564;47016;-74
2024/03/08 13:52:01;;;;;;;;;3.33;3.00;;;;;16.99;49.24;101173.50;146623;565;46021;-75
2024/03/08 13:55:05;;;;;;;;;2.00;2.00;;;;;16.99;49.65;101174.38;146618;569;46014;-78
2024/03/08 13:58:06;;;;;;;;;2.00;2.00;;;;;16.98;49.63;101164.75;146619;656;46021;-77
2024/03/08 14:01:01;;;;;;;;;2.67;2.00;;;;;16.93;49.46;101174.19;146616;607;46016;-76
2024/03/08 14:03:57;;;;;;;;;2.00;2.00;;;;;16.85;49.82;101166.09;146609;607;46020;-75
2024/03/08 14:07:00;;;;;;;;;4.00;3.00;;;;;16.90;49.57;101162.72;146617;657;46017;-74
2024/03/08 14:10:09;;;;;;;;;3.00;2.67;;;;;16.94;49.34;101162.84;146621;601;46020;-76
2024/03/08 14:13:04;;;;;;;;;5.00;4.00;;;;;16.92;49.26;101159.31;146620;595;46015;-80
2024/03/08 14:16:05;;;;;;;;;2.67;2.67;;;;;16.82;49.98;101160.75;146621;675;46020;-76